Time;durP1;ratioP1;P1;durP2;ratioP2;P2;SDS_P1;SDS_P2;PMS_P1;PMS_P2;Temp;Humidity;BMP_temperature;BMP_pressure;BME280_temperature;BME280_humidity;BME280_pressure;Samples;Min_cycle;Max_cycle;Signal;HPM_P1;HPM_P2
2024/01/21 00:02:21;;;;;;;1.20;1.10;;;;;;;-3.41;35.87;93800.25;4833200;29;20505;-78
2024/01/21 00:04:50;;;;;;;1.45;1.20;;;;;;;-3.37;37.39;93806.66;4844561;29;20037;-80
2024/01/21 00:07:15;;;;;;;1.77;1.20;;;;;;;-3.37;37.08;93814.34;4836692;29;20379;-77
2024/01/21 00:09:41;;;;;;;1.10;1.00;;;;;;;-3.47;37.45;93790.69;4812058;29;20040;-79
2024/01/21 00:12:07;;;;;;;3.67;1.23;;;;;;;-3.43;37.82;93797.06;4842878;29;20403;-79
2024/01/21 00:14:32;;;;;;;1.90;1.30;;;;;;;-3.38;36.82;93805.03;4832308;29;20042;-78
2024/01/21 00:16:58;;;;;;;1.42;1.20;;;;;;;-3.43;37.53;93794.50;4838558;29;20399;-79
2024/01/21 00:19:24;;;;;;;1.25;1.10;;;;;;;-3.43;37.59;93804.75;4843481;29;20080;-79
2024/01/21 00:21:49;;;;;;;1.38;1.20;;;;;;;-3.48;36.71;93791.66;4843860;29;20046;-79
2024/01/21 00:24:15;;;;;;;2.17;1.05;;;;;;;-3.48;36.45;93794.22;4842898;29;20050;-79
2024/01/21 00:26:40;;;;;;;1.10;1.00;;;;;;;-3.46;36.66;93794.88;4842847;29;20406;-78
2024/01/21 00:29:06;;;;;;;1.80;1.20;;;;;;;-3.47;37.58;93799.16;4842320;29;20046;-78
2024/01/21 00:31:34;;;;;;;0.85;0.85;;;;;;;-3.46;36.69;93799.97;4839230;29;20157;-79
2024/01/21 00:33:59;;;;;;;1.98;1.30;;;;;;;-3.45;36.55;93791.31;4830928;29;20044;-79
2024/01/21 00:36:27;;;;;;;1.10;1.00;;;;;;;-3.45;37.76;93797.22;4843130;29;20045;-79
2024/01/21 00:38:52;;;;;;;1.33;1.10;;;;;;;-3.47;37.93;93799.16;4842624;29;20572;-79
2024/01/21 00:41:19;;;;;;;1.65;1.30;;;;;;;-3.51;37.59;93794.53;4835452;29;20038;-79
2024/01/21 00:43:44;;;;;;;1.48;1.25;;;;;;;-3.48;37.69;93801.91;4843280;29;20045;-79
2024/01/21 00:46:10;;;;;;;1.63;1.30;;;;;;;-3.50;38.10;93796.94;4835074;29;20061;-79
2024/01/21 00:48:36;;;;;;;1.73;1.10;;;;;;;-3.54;38.44;93790.56;4836046;29;20046;-78
2024/01/21 00:51:01;;;;;;;1.20;1.10;;;;;;;-3.54;38.52;93787.22;4842086;29;20052;-79
2024/01/21 00:53:27;;;;;;;1.23;1.13;;;;;;;-3.55;37.38;93783.88;4842566;29;20828;-79
2024/01/21 00:55:53;;;;;;;1.45;1.10;;;;;;;-3.57;37.10;93790.91;4842671;29;20050;-78
2024/01/21 00:58:18;;;;;;;0.93;0.90;;;;;;;-3.58;36.99;93792.69;4825528;29;20046;-79
2024/01/21 01:00:44;;;;;;;1.20;1.10;;;;;;;-3.56;37.23;93792.50;4834769;29;20037;-79
2024/01/21 01:03:10;;;;;;;1.40;1.20;;;;;;;-3.58;37.27;93802.91;4846788;29;20094;-78
2024/01/21 01:05:35;;;;;;;1.80;1.27;;;;;;;-3.59;36.88;93796.19;4839603;29;20392;-79
2024/01/21 01:08:01;;;;;;;1.45;1.27;;;;;;;-3.61;37.59;93793.00;4832797;29;20094;-79
2024/01/21 01:10:26;;;;;;;2.35;1.20;;;;;;;-3.61;37.56;93795.56;4842166;29;20170;-79
2024/01/21 01:12:52;;;;;;;1.50;1.23;;;;;;;-3.67;38.26;93793.69;4841196;29;20069;-79
2024/01/21 01:15:18;;;;;;;1.50;1.20;;;;;;;-3.63;38.17;93800.03;4824953;29;20593;-78
2024/01/21 01:17:44;;;;;;;1.20;1.10;;;;;;;-3.65;38.27;93796.84;4842762;29;20442;-79
2024/01/21 01:20:10;;;;;;;1.08;0.98;;;;;;;-3.68;37.63;93797.19;4839968;29;20050;-79
2024/01/21 01:22:36;;;;;;;1.30;1.20;;;;;;;-3.65;37.44;93801.97;4841995;29;20550;-79
2024/01/21 01:25:01;;;;;;;1.10;1.00;;;;;;;-3.67;38.59;93798.81;4842554;29;20030;-79
2024/01/21 01:27:27;;;;;;;2.08;1.10;;;;;;;-3.68;38.73;93797.19;4835513;29;20045;-79
2024/01/21 01:29:52;;;;;;;1.17;1.08;;;;;;;-3.72;37.45;93795.94;4843173;29;20038;-79
2024/01/21 01:32:18;;;;;;;1.23;1.10;;;;;;;-3.72;37.36;93798.47;4841244;29;20540;-78
2024/01/21 01:34:43;;;;;;;1.20;1.10;;;;;;;-3.73;36.70;93798.66;4828975;29;20427;-79
2024/01/21 01:37:11;;;;;;;1.20;1.10;;;;;;;-3.72;35.75;93801.03;4841509;29;20607;-79
2024/01/21 01:39:37;;;;;;;1.10;1.00;;;;;;;-3.71;35.82;93801.88;4838061;29;20082;-79
2024/01/21 01:42:03;;;;;;;1.27;1.17;;;;;;;-3.70;35.62;93798.31;4840296;29;20097;-78
2024/01/21 01:44:28;;;;;;;1.00;1.00;;;;;;;-3.70;35.85;93794.00;4841769;29;20070;-79
2024/01/21 01:46:55;;;;;;;1.00;1.00;;;;;;;-3.72;36.24;93795.94;4836440;29;20455;-79
2024/01/21 01:49:21;;;;;;;0.90;0.90;;;;;;;-3.74;36.19;93792.72;4824359;29;20038;-79
2024/01/21 01:51:46;;;;;;;1.25;1.15;;;;;;;-3.75;36.36;93786.03;4842539;29;20048;-78
2024/01/21 01:54:14;;;;;;;1.98;1.25;;;;;;;-3.73;36.14;93788.44;4834277;29;20123;-79
2024/01/21 01:56:39;;;;;;;1.08;1.02;;;;;;;-3.75;35.73;93786.03;4844545;29;20048;-79
2024/01/21 01:59:09;;;;;;;0.90;0.90;;;;;;;-3.75;36.50;93775.00;4845811;29;20041;-79
2024/01/21 02:01:38;;;;;;;1.05;0.95;;;;;;;-3.79;36.73;93775.31;4834288;29;20045;-79
2024/01/21 02:04:06;;;;;;;1.02;1.00;;;;;;;-3.79;37.09;93771.97;4841084;29;20810;-79
2024/01/21 02:06:32;;;;;;;1.10;1.00;;;;;;;-3.82;36.78;93780.78;4841999;29;20038;-79
2024/01/21 02:08:58;;;;;;;1.80;1.10;;;;;;;-3.85;36.17;93785.44;4840544;29;20109;-79
2024/01/21 02:11:23;;;;;;;1.67;1.35;;;;;;;-3.89;35.69;93779.84;4842209;29;20074;-79
2024/01/21 02:13:49;;;;;;;0.98;0.98;;;;;;;-3.90;35.65;93777.47;4835603;29;20038;-78
2024/01/21 02:16:15;;;;;;;1.02;0.98;;;;;;;-3.90;36.38;93785.13;4838536;29;20053;-79
2024/01/21 02:18:45;;;;;;;1.10;1.00;;;;;;;-3.92;35.67;93784.50;4839567;29;20126;-78
2024/01/21 02:21:10;;;;;;;1.00;1.00;;;;;;;-3.87;35.58;93788.16;4841128;29;20037;-79
2024/01/21 02:23:36;;;;;;;1.10;1.00;;;;;;;-3.85;35.44;93786.25;4834381;29;20053;-79
2024/01/21 02:26:02;;;;;;;1.08;1.00;;;;;;;-3.87;35.18;93783.06;4839768;29;20045;-80
2024/01/21 02:28:27;;;;;;;1.05;1.02;;;;;;;-3.87;35.17;93787.34;4838508;29;20046;-79
2024/01/21 02:30:53;;;;;;;1.70;1.10;;;;;;;-3.90;34.80;93791.03;4824576;29;20495;-79
2024/01/21 02:33:18;;;;;;;1.27;1.10;;;;;;;-3.92;35.34;93792.16;4824457;29;20041;-79
2024/01/21 02:35:44;;;;;;;1.20;1.10;;;;;;;-3.99;34.46;93777.47;4840668;29;20447;-79
2024/01/21 02:38:10;;;;;;;1.48;1.05;;;;;;;-3.92;34.79;93787.06;4828983;29;20037;-79
2024/01/21 02:40:37;;;;;;;0.93;0.93;;;;;;;-3.95;35.56;93787.41;4840474;29;20038;-79
2024/01/21 02:43:07;;;;;;;1.00;0.95;;;;;;;-3.97;36.08;93782.44;4832820;29;20124;-79
2024/01/21 02:45:34;;;;;;;1.15;1.05;;;;;;;-3.95;35.73;93779.72;4833592;29;20046;-79
2024/01/21 02:48:00;;;;;;;1.10;1.00;;;;;;;-3.95;36.00;93777.16;4840760;29;20044;-79
2024/01/21 02:50:26;;;;;;;0.90;0.90;;;;;;;-3.98;35.49;93776.53;4841284;29;20069;-79
2024/01/21 02:52:51;;;;;;;1.27;1.10;;;;;;;-3.99;35.76;93779.25;4840001;29;20368;-79
2024/01/21 02:55:17;;;;;;;1.15;1.08;;;;;;;-3.99;35.78;93780.03;4839906;29;20490;-79
2024/01/21 02:57:42;;;;;;;1.20;1.10;;;;;;;-3.97;35.36;93774.75;4826750;29;20049;-79
2024/01/21 03:00:09;;;;;;;2.25;1.20;;;;;;;-3.97;35.64;93780.66;4816271;29;20134;-79
2024/01/21 03:02:36;;;;;;;1.33;1.20;;;;;;;-3.98;35.90;93780.84;4840322;29;20530;-79
2024/01/21 03:05:02;;;;;;;1.20;1.10;;;;;;;-3.97;35.17;93778.13;4839826;29;20467;-79
2024/01/21 03:07:27;;;;;;;1.08;0.95;;;;;;;-3.94;34.70;93782.13;4839453;29;20049;-79
2024/01/21 03:09:53;;;;;;;1.10;1.00;;;;;;;-3.90;34.97;93780.00;4823745;29;20495;-79
2024/01/21 03:12:18;;;;;;;1.08;1.00;;;;;;;-3.90;35.69;93777.47;4837933;29;20443;-79
2024/01/21 03:14:44;;;;;;;1.13;1.02;;;;;;;-3.93;36.04;93772.69;4828979;29;20046;-79
2024/01/21 03:17:09;;;;;;;1.25;1.13;;;;;;;-3.94;35.43;93766.78;4830409;29;20041;-79
2024/01/21 03:19:35;;;;;;;1.05;1.00;;;;;;;-3.94;35.86;93760.84;4813396;29;20141;-79
2024/01/21 03:22:00;;;;;;;1.15;1.05;;;;;;;-3.95;36.73;93766.94;4835741;29;20038;-79
2024/01/21 03:24:26;;;;;;;1.40;1.15;;;;;;;-3.94;37.01;93765.97;4814029;29;20934;-79
2024/01/21 03:26:52;;;;;;;1.20;1.10;;;;;;;-3.94;36.08;93763.41;4812659;29;20565;-79
2024/01/21 03:29:17;;;;;;;1.23;1.10;;;;;;;-3.98;35.85;93755.28;4837566;29;20061;-79
2024/01/21 03:31:43;;;;;;;1.33;1.10;;;;;;;-3.95;36.11;93769.50;4835222;29;20058;-79
2024/01/21 03:34:09;;;;;;;0.90;0.90;;;;;;;-3.98;36.14;93763.75;4820887;29;20045;-79
2024/01/21 03:36:34;;;;;;;0.90;0.90;;;;;;;-3.98;36.20;93760.38;4839694;29;20029;-79
2024/01/21 03:39:00;;;;;;;1.17;1.13;;;;;;;-3.97;36.88;93767.09;4840254;29;20496;-79
2024/01/21 03:41:25;;;;;;;1.13;1.00;;;;;;;-3.94;35.75;93771.06;4823628;29;20042;-79
2024/01/21 03:43:51;;;;;;;1.13;1.00;;;;;;;-3.95;35.65;93760.06;4833097;29;20042;-79
2024/01/21 03:46:17;;;;;;;1.65;1.23;;;;;;;-3.94;35.69;93755.72;4838373;29;20038;-78
2024/01/21 03:48:43;;;;;;;1.17;1.10;;;;;;;-3.97;36.72;93762.75;4824091;29;20062;-78
2024/01/21 03:51:12;;;;;;;1.20;1.10;;;;;;;-3.98;36.58;93766.28;4808788;29;20068;-78
2024/01/21 03:53:39;;;;;;;1.23;1.10;;;;;;;-3.99;36.02;93754.44;4840441;29;20406;-79
2024/01/21 03:56:06;;;;;;;1.50;1.10;;;;;;;-3.99;36.37;93762.13;4840964;29;20095;-78
2024/01/21 03:58:31;;;;;;;1.10;1.00;;;;;;;-4.01;35.90;93758.97;4839897;29;20042;-78
2024/01/21 04:00:57;;;;;;;0.90;0.90;;;;;;;-3.98;36.04;93768.84;4823985;29;20052;-78
2024/01/21 04:03:22;;;;;;;1.30;1.10;;;;;;;-3.99;36.37;93764.69;4836624;29;20054;-78
2024/01/21 04:05:48;;;;;;;1.58;1.00;;;;;;;-4.03;36.46;93762.63;4834922;29;20032;-78
2024/01/21 04:08:13;;;;;;;0.85;0.85;;;;;;;-4.06;36.14;93761.19;4840813;29;20410;-78
2024/01/21 04:10:39;;;;;;;1.30;1.20;;;;;;;-4.04;36.87;93764.41;4836846;29;20486;-78
2024/01/21 04:13:05;;;;;;;1.50;1.15;;;;;;;-4.06;36.73;93758.63;4839414;29;20052;-78
2024/01/21 04:15:30;;;;;;;2.03;1.20;;;;;;;-4.07;36.85;93764.72;4833244;29;20054;-78
2024/01/21 04:17:57;;;;;;;1.30;1.20;;;;;;;-4.10;36.98;93759.94;4836605;29;20054;-78
2024/01/21 04:20:22;;;;;;;1.48;1.10;;;;;;;-4.07;36.75;93764.72;4836154;29;20030;-78
2024/01/21 04:22:48;;;;;;;1.20;1.10;;;;;;;-4.05;36.85;93760.25;4834734;29;20047;-78
2024/01/21 04:25:14;;;;;;;1.63;1.27;;;;;;;-4.05;37.36;93756.91;4821638;29;20142;-78
2024/01/21 04:27:39;;;;;;;1.20;1.10;;;;;;;-4.14;37.07;93742.53;4816361;29;20082;-78
2024/01/21 04:30:05;;;;;;;1.42;1.10;;;;;;;-4.06;37.40;93761.19;4809361;29;20068;-78
2024/01/21 04:32:31;;;;;;;1.30;1.00;;;;;;;-4.07;38.03;93751.94;4823578;29;20498;-78
2024/01/21 04:34:57;;;;;;;1.08;1.00;;;;;;;-4.08;37.93;93747.78;4839580;29;20034;-78
2024/01/21 04:37:23;;;;;;;1.75;1.10;;;;;;;-4.08;36.68;93747.00;4839437;29;20042;-78
2024/01/21 04:39:48;;;;;;;0.90;0.90;;;;;;;-4.06;35.34;93748.41;4840486;29;20053;-78
2024/01/21 04:42:14;;;;;;;2.15;1.30;;;;;;;-4.07;35.82;93744.28;4818009;29;20475;-79
2024/01/21 04:44:39;;;;;;;1.20;1.10;;;;;;;-4.07;35.94;93743.47;4836022;29;20046;-78
2024/01/21 04:47:05;;;;;;;1.20;1.10;;;;;;;-4.12;35.98;93732.94;4836260;29;20677;-78
2024/01/21 04:49:30;;;;;;;1.05;1.00;;;;;;;-4.04;36.47;93735.47;4805668;29;20534;-78
2024/01/21 04:51:56;;;;;;;1.20;1.10;;;;;;;-4.05;36.33;93734.69;4827079;29;20038;-78
2024/01/21 04:54:22;;;;;;;1.10;1.00;;;;;;;-4.05;36.56;93739.78;4843316;29;20057;-78
2024/01/21 04:56:47;;;;;;;1.25;1.00;;;;;;;-4.05;36.83;93750.03;4843363;29;20121;-78
2024/01/21 04:59:13;;;;;;;1.20;1.10;;;;;;;-4.09;38.02;93743.63;4826025;29;20299;-78
2024/01/21 05:01:39;;;;;;;1.17;1.08;;;;;;;-4.14;37.60;93745.09;4839080;29;20109;-78
2024/01/21 05:04:05;;;;;;;1.08;0.90;;;;;;;-4.14;38.20;93730.56;4839496;29;20042;-78
2024/01/21 05:06:30;;;;;;;1.17;1.08;;;;;;;-4.14;38.41;93739.97;4842728;29;20046;-78
2024/01/21 05:08:56;;;;;;;1.20;1.10;;;;;;;-4.17;37.50;93736.00;4843104;29;20060;-78
2024/01/21 05:11:22;;;;;;;2.13;1.10;;;;;;;-4.18;36.74;93736.97;4838612;29;20093;-78
2024/01/21 05:13:47;;;;;;;0.90;0.90;;;;;;;-4.16;37.40;93732.47;4836458;29;20049;-78
2024/01/21 05:16:13;;;;;;;1.30;1.10;;;;;;;-4.15;36.72;93731.50;4842142;29;20198;-78
2024/01/21 05:18:39;;;;;;;0.82;0.82;;;;;;;-4.12;36.44;93727.81;4842480;29;20053;-78
2024/01/21 05:21:05;;;;;;;1.42;1.00;;;;;;;-4.13;36.83;93726.22;4842571;29;20045;-78
2024/01/21 05:23:32;;;;;;;1.23;1.13;;;;;;;-4.28;38.54;93713.34;4815794;29;20106;-78
2024/01/21 05:25:57;;;;;;;1.10;1.00;;;;;;;-4.24;38.06;93724.84;4831549;29;20046;-78
2024/01/21 05:28:23;;;;;;;1.25;1.10;;;;;;;-4.22;37.16;93728.81;4839799;29;20061;-78
2024/01/21 05:30:48;;;;;;;1.33;1.10;;;;;;;-4.21;36.49;93730.44;4826169;29;20041;-78
2024/01/21 05:33:14;;;;;;;1.52;1.10;;;;;;;-4.21;36.28;93732.16;4838151;29;20053;-78
2024/01/21 05:35:39;;;;;;;1.40;1.10;;;;;;;-4.23;36.79;93729.00;4835597;29;20376;-78
2024/01/21 05:38:05;;;;;;;1.30;1.13;;;;;;;-4.22;36.77;93728.81;4841757;29;20422;-78
2024/01/21 05:40:31;;;;;;;1.73;1.30;;;;;;;-4.22;37.38;93733.94;4835161;29;20056;-78
2024/01/21 05:42:56;;;;;;;1.58;1.15;;;;;;;-4.25;36.92;93734.25;4842318;29;20038;-78
2024/01/21 05:45:22;;;;;;;1.42;1.20;;;;;;;-4.25;36.90;93738.59;4842301;29;20110;-78
2024/01/21 05:47:48;;;;;;;1.38;1.20;;;;;;;-4.29;36.85;93732.22;4826174;29;20049;-78
2024/01/21 05:50:14;;;;;;;1.67;1.20;;;;;;;-4.21;36.91;93740.66;4842620;29;20135;-78
2024/01/21 05:52:39;;;;;;;1.88;1.20;;;;;;;-4.20;36.47;93746.56;4825195;29;20074;-78
2024/01/21 05:55:05;;;;;;;2.78;1.40;;;;;;;-4.20;36.78;93741.44;4842599;29;20034;-78
2024/01/21 05:57:31;;;;;;;2.08;1.35;;;;;;;-4.21;36.44;93748.31;4834533;29;20405;-78
2024/01/21 05:59:58;;;;;;;1.10;1.00;;;;;;;-4.21;36.64;93755.19;4824594;29;20050;-78
2024/01/21 06:02:23;;;;;;;1.00;0.98;;;;;;;-4.21;36.41;93752.63;4835226;29;20447;-78
2024/01/21 06:04:50;;;;;;;1.35;1.10;;;;;;;-4.22;36.28;93756.16;4821029;29;20099;-78
2024/01/21 06:07:16;;;;;;;1.13;1.00;;;;;;;-4.22;35.68;93743.38;4840629;29;20094;-78
2024/01/21 06:09:42;;;;;;;1.05;0.98;;;;;;;-4.24;35.93;93755.50;4826255;29;20046;-78
2024/01/21 06:12:08;;;;;;;1.10;1.00;;;;;;;-4.21;35.30;93760.28;4840565;29;20457;-78
2024/01/21 06:14:33;;;;;;;1.55;1.10;;;;;;;-4.24;35.68;93758.88;4837464;29;20095;-78
2024/01/21 06:16:59;;;;;;;2.03;1.00;;;;;;;-4.22;36.81;93764.63;4831110;29;20080;-78
2024/01/21 06:19:26;;;;;;;1.73;1.15;;;;;;;-4.24;37.77;93753.75;4841741;29;20038;-78
2024/01/21 06:21:51;;;;;;;1.20;1.10;;;;;;;-4.22;38.05;93763.81;4825769;29;20558;-78
2024/01/21 06:24:20;;;;;;;1.10;1.02;;;;;;;-4.22;37.44;93758.72;4842088;29;20129;-78
2024/01/21 06:26:45;;;;;;;1.20;1.10;;;;;;;-4.22;37.32;93763.81;4842833;29;20056;-78
2024/01/21 06:29:12;;;;;;;1.20;1.10;;;;;;;-4.21;37.20;93766.22;4843196;29;20030;-78
2024/01/21 06:31:38;;;;;;;1.20;1.05;;;;;;;-4.20;36.87;93772.13;4842465;29;20042;-78
2024/01/21 06:34:06;;;;;;;1.45;1.20;;;;;;;-4.21;36.83;93773.06;4839134;29;20471;-78
2024/01/21 06:36:31;;;;;;;1.23;1.10;;;;;;;-4.23;36.68;93762.25;4814929;29;20038;-78
2024/01/21 06:38:57;;;;;;;1.35;1.20;;;;;;;-4.19;37.08;93778.81;4821275;29;20049;-78
2024/01/21 06:41:22;;;;;;;1.20;1.10;;;;;;;-4.18;38.07;93775.31;4830736;29;20447;-78
2024/01/21 06:43:48;;;;;;;1.77;1.23;;;;;;;-4.18;38.06;93770.22;4831219;29;20094;-78
2024/01/21 06:46:15;;;;;;;1.52;1.20;;;;;;;-4.18;38.51;93778.66;4843894;29;20476;-79
2024/01/21 06:48:41;;;;;;;1.38;1.10;;;;;;;-4.16;38.20;93767.50;4834321;29;20050;-78
2024/01/21 06:51:10;;;;;;;1.40;1.10;;;;;;;-4.15;37.22;93767.31;4831004;29;20094;-78
2024/01/21 06:53:37;;;;;;;0.90;0.90;;;;;;;-4.13;37.93;93767.94;4836317;29;20063;-78
2024/01/21 06:56:07;;;;;;;1.27;1.10;;;;;;;-4.13;37.31;93762.84;4828743;29;20058;-78
2024/01/21 06:58:36;;;;;;;1.83;1.20;;;;;;;-4.08;37.26;93765.69;4802797;29;20133;-78
2024/01/21 07:01:02;;;;;;;1.90;1.50;;;;;;;-4.05;37.64;93767.13;4843498;29;20038;-78
2024/01/21 07:03:28;;;;;;;1.20;1.10;;;;;;;-4.06;37.08;93768.88;4841927;29;20088;-78
2024/01/21 07:05:54;;;;;;;1.52;1.17;;;;;;;-4.05;37.34;93770.50;4843952;29;20042;-78
2024/01/21 07:08:20;;;;;;;0.95;0.95;;;;;;;-4.08;37.32;93755.44;4843251;29;20125;-78
2024/01/21 07:10:46;;;;;;;1.17;1.08;;;;;;;-3.99;37.64;93772.38;4825344;29;20042;-77
2024/01/21 07:13:11;;;;;;;1.30;1.20;;;;;;;-3.99;37.85;93774.91;4839821;29;20062;-78
2024/01/21 07:15:37;;;;;;;1.10;1.00;;;;;;;-3.94;37.62;93783.88;4838423;29;20065;-81
2024/01/21 07:18:03;;;;;;;1.20;1.10;;;;;;;-3.85;36.94;93790.53;4832626;29;20548;-80
2024/01/21 07:20:29;;;;;;;1.00;1.00;;;;;;;-2.85;35.43;93782.94;4817923;29;20041;-80
2024/01/21 07:22:55;;;;;;;1.00;0.90;;;;;;;-1.41;33.69;93778.38;4835209;29;20435;-81
2024/01/21 07:25:21;;;;;;;1.20;1.10;;;;;;;-0.13;33.14;93778.50;4825336;29;20038;-79
2024/01/21 07:27:47;;;;;;;1.95;1.10;;;;;;;0.90;31.58;93776.75;4836163;29;20052;-79
2024/01/21 07:30:14;;;;;;;1.50;1.00;;;;;;;2.12;30.09;93782.53;4837598;29;20042;-79
2024/01/21 07:32:40;;;;;;;0.80;0.80;;;;;;;3.27;27.85;93792.19;4838264;29;20414;-79
2024/01/21 07:35:08;;;;;;;0.70;0.70;;;;;;;4.25;26.07;93790.78;4823066;29;20042;-77
2024/01/21 07:37:35;;;;;;;0.90;0.90;;;;;;;5.13;24.64;93798.16;4835334;29;20026;-78
2024/01/21 07:40:01;;;;;;;0.90;0.90;;;;;;;6.00;23.44;93786.53;4840573;29;20053;-79
2024/01/21 07:42:27;;;;;;;1.08;0.88;;;;;;;6.91;22.47;93791.25;4839029;29;20120;-80
2024/01/21 07:44:52;;;;;;;1.35;1.00;;;;;;;8.01;22.27;93794.44;4834668;29;20592;-80
2024/01/21 07:47:18;;;;;;;0.77;0.77;;;;;;;8.00;20.28;93798.09;4836772;29;20426;-80
2024/01/21 07:49:43;;;;;;;0.75;0.75;;;;;;;7.96;21.67;93792.56;4834599;29;20398;-80
2024/01/21 07:52:10;;;;;;;1.58;1.05;;;;;;;8.53;20.92;93786.34;4835978;29;20588;-81
2024/01/21 07:54:35;;;;;;;0.90;0.90;;;;;;;8.93;20.28;93785.28;4836408;29;20041;-80
2024/01/21 07:57:01;;;;;;;1.48;1.00;;;;;;;9.56;20.31;93798.72;4837198;29;20037;-81
2024/01/21 07:59:26;;;;;;;1.20;1.00;;;;;;;10.08;19.56;93805.19;4830234;29;20445;-81
2024/01/21 08:01:53;;;;;;;1.10;0.95;;;;;;;10.81;18.78;93805.41;4836338;29;20038;-81
2024/01/21 08:04:18;;;;;;;1.40;1.00;;;;;;;11.01;18.65;93808.13;4834981;29;20142;-81
2024/01/21 08:06:44;;;;;;;0.88;0.88;;;;;;;10.62;18.80;93810.28;4835071;29;20069;-82
2024/01/21 08:09:09;;;;;;;1.17;0.90;;;;;;;11.54;17.94;93817.72;4833515;29;20120;-81
2024/01/21 08:11:35;;;;;;;1.10;1.00;;;;;;;11.85;17.47;93811.47;4835341;29;20589;-80
2024/01/21 08:14:02;;;;;;;0.88;0.80;;;;;;;12.15;18.04;93807.31;4819731;29;20497;-80
2024/01/21 08:16:28;;;;;;;1.83;1.10;;;;;;;12.81;16.81;93810.88;4819137;29;20137;-81
2024/01/21 08:18:53;;;;;;;1.30;0.88;;;;;;;13.24;16.17;93813.88;4821902;29;20499;-81
2024/01/21 08:21:19;;;;;;;1.20;1.00;;;;;;;13.65;16.44;93803.22;4836141;29;20049;-81
2024/01/21 08:23:44;;;;;;;1.17;0.90;;;;;;;13.65;15.79;93804.00;4808024;29;20462;-81
2024/01/21 08:26:10;;;;;;;1.20;1.00;;;;;;;14.48;15.74;93801.53;4826011;29;20403;-81
2024/01/21 08:28:37;;;;;;;1.67;1.15;;;;;;;14.42;16.07;93805.25;4837412;29;20101;-81
2024/01/21 08:31:03;;;;;;;1.38;1.08;;;;;;;14.46;17.09;93806.28;4825904;29;20042;-82
2024/01/21 08:33:29;;;;;;;2.60;1.50;;;;;;;12.32;19.83;93803.66;4825815;29;20098;-81
2024/01/21 08:35:55;;;;;;;2.15;1.35;;;;;;;14.32;17.57;93799.03;4827779;29;20060;-81
2024/01/21 08:38:21;;;;;;;1.67;1.20;;;;;;;15.35;16.55;93797.94;4843178;29;20394;-82
2024/01/21 08:40:46;;;;;;;1.55;0.90;;;;;;;15.09;15.06;93794.84;4839405;29;20030;-82
2024/01/21 08:43:12;;;;;;;1.45;1.13;;;;;;;15.20;14.79;93791.03;4822186;29;20487;-81
2024/01/21 08:45:38;;;;;;;2.05;1.40;;;;;;;14.91;15.76;93797.16;4824705;29;20494;-81
2024/01/21 08:48:04;;;;;;;1.65;1.23;;;;;;;15.20;16.59;93799.72;4841151;29;20149;-82
2024/01/21 08:50:30;;;;;;;2.17;1.20;;;;;;;15.64;15.69;93799.69;4840981;29;20067;-82
2024/01/21 08:52:56;;;;;;;2.88;1.88;;;;;;;15.48;15.38;93793.84;4836501;29;20422;-82
2024/01/21 08:55:21;;;;;;;1.85;1.17;;;;;;;14.64;15.53;93795.06;4824324;29;20083;-81
2024/01/21 08:57:47;;;;;;;1.67;1.10;;;;;;;15.07;15.25;93800.41;4825407;29;20079;-81
2024/01/21 09:00:13;;;;;;;2.65;1.33;;;;;;;15.47;16.44;93803.63;4841323;29;20055;-81
2024/01/21 09:02:39;;;;;;;2.78;1.52;;;;;;;15.08;17.68;93798.53;4837868;29;20030;-81
2024/01/21 09:05:05;;;;;;;3.00;1.60;;;;;;;13.20;18.88;93807.63;4841764;29;20042;-82
2024/01/21 09:07:31;;;;;;;1.45;1.00;;;;;;;13.59;16.67;93807.69;4836845;29;20355;-82
2024/01/21 09:09:57;;;;;;;2.75;1.70;;;;;;;12.58;20.58;93815.66;4841923;29;20042;-82
2024/01/21 09:12:25;;;;;;;2.80;1.70;;;;;;;11.31;22.97;93822.38;4836520;29;20510;-81
2024/01/21 09:14:51;;;;;;;3.20;1.90;;;;;;;10.24;24.37;93813.94;4821304;29;20074;-81
2024/01/21 09:17:16;;;;;;;3.05;1.67;;;;;;;10.31;23.76;93812.72;4842518;29;20037;-81
2024/01/21 09:19:43;;;;;;;2.33;1.30;;;;;;;10.00;23.34;93811.69;4835496;29;20037;-80
2024/01/21 09:22:09;;;;;;;2.80;1.50;;;;;;;9.27;23.18;93825.09;4842910;29;20040;-80
2024/01/21 09:24:34;;;;;;;2.85;1.50;;;;;;;7.98;23.11;93821.81;4843832;29;20110;-80
2024/01/21 09:27:00;;;;;;;2.50;1.60;;;;;;;6.81;24.29;93823.88;4840558;29;20040;-80
2024/01/21 09:29:25;;;;;;;3.92;1.60;;;;;;;6.85;24.14;93822.41;4819678;29;20027;-80
2024/01/21 09:31:58;;;;;;;2.40;1.40;;;;;;;6.68;24.37;93824.13;4843765;29;20034;-79
2024/01/21 09:34:23;;;;;;;;;;;;;;;6.67;25.15;93823.34;4818666;29;20053;-81
2024/01/21 09:36:51;;;;;;;2.05;1.45;;;;;;;6.94;25.73;93822.06;4830868;29;19958;-80
2024/01/21 09:39:17;;;;;;;1.90;1.40;;;;;;;6.61;25.83;93823.47;4839464;29;20034;-79
2024/01/21 09:41:51;;;;;;;2.63;1.42;;;;;;;6.81;25.41;93831.69;4837533;29;20430;-80
2024/01/21 09:44:35;;;;;;;2.92;1.67;;;;;;;6.90;26.09;93828.75;4838356;29;20070;-80
2024/01/21 09:47:02;;;;;;;2.50;1.48;;;;;;;7.15;25.63;93834.44;4843421;29;20383;-80
2024/01/21 09:49:27;;;;;;;2.63;1.60;;;;;;;7.40;24.45;93828.91;4834145;29;20108;-80
2024/01/21 09:51:54;;;;;;;1.65;1.20;;;;;;;7.32;23.32;93816.25;4825573;29;20133;-80
2024/01/21 09:54:22;;;;;;;3.05;1.70;;;;;;;7.18;25.78;93833.16;4817822;29;20054;-80
2024/01/21 09:56:48;;;;;;;2.47;1.40;;;;;;;7.07;25.26;93827.00;4817960;29;20030;-80
2024/01/21 09:59:15;;;;;;;3.30;1.50;;;;;;;6.91;24.75;93825.88;4832369;29;20058;-79
2024/01/21 10:01:41;;;;;;;1.90;1.35;;;;;;;6.99;26.00;93829.97;4839583;29;20034;-80
2024/01/21 10:04:08;;;;;;;2.88;1.80;;;;;;;6.92;26.83;93824.09;4833711;29;20454;-80
2024/01/21 10:06:34;;;;;;;2.10;1.35;;;;;;;6.39;23.45;93826.63;4839874;29;20109;-80
2024/01/21 10:09:16;;;;;;;2.95;1.45;;;;;;;5.78;23.59;93830.41;4838490;29;20175;-80
2024/01/21 10:11:41;;;;;;;2.45;1.55;;;;;;;5.63;24.52;93836.81;4818861;29;20046;-80
2024/01/21 10:14:07;;;;;;;6.18;3.47;;;;;;;5.17;26.45;93835.63;4819450;29;20068;-81
2024/01/21 10:16:33;;;;;;;2.33;1.60;;;;;;;5.06;27.63;93838.97;4839341;29;20079;-82
2024/01/21 10:19:00;;;;;;;1.98;1.40;;;;;;;5.30;28.15;93828.72;4832819;29;20042;-80
2024/01/21 10:21:25;;;;;;;2.45;1.50;;;;;;;5.37;27.03;93829.41;4834034;29;20423;-80
2024/01/21 10:23:51;;;;;;;1.73;1.20;;;;;;;5.11;26.48;93833.13;4836136;29;20037;-79
2024/01/21 10:26:18;;;;;;;1.80;1.20;;;;;;;4.93;27.36;93832.16;4828827;29;20495;-81
2024/01/21 10:28:43;;;;;;;1.63;1.30;;;;;;;5.03;25.58;93826.44;4829314;29;20057;-80
2024/01/21 10:31:09;;;;;;;1.67;1.35;;;;;;;4.97;26.74;93824.72;4836992;29;20047;-81
2024/01/21 10:33:34;;;;;;;1.17;1.08;;;;;;;5.22;25.75;93819.41;4821135;29;20030;-80
2024/01/21 10:36:03;;;;;;;3.30;1.80;;;;;;;5.48;24.71;93818.25;4836601;29;20037;-80
2024/01/21 10:38:34;;;;;;;1.75;1.25;;;;;;;5.96;23.64;93809.56;4838090;29;20655;-80
2024/01/21 10:41:00;;;;;;;2.30;1.35;;;;;;;5.89;23.66;93816.66;4813919;29;20704;-79
2024/01/21 10:43:29;;;;;;;4.05;1.42;;;;;;;6.20;25.74;93817.38;4833098;29;20498;-78
2024/01/21 10:45:55;;;;;;;3.28;1.70;;;;;;;6.44;26.02;93818.97;4836204;29;20094;-80
2024/01/21 10:48:21;;;;;;;2.95;1.60;;;;;;;6.36;25.57;93815.91;4819007;29;20101;-79
2024/01/21 10:50:51;;;;;;;2.03;1.30;;;;;;;6.58;26.35;93821.31;4835010;29;20069;-79
2024/01/21 10:53:17;;;;;;;1.73;1.25;;;;;;;6.45;25.86;93815.34;4838113;29;20067;-79
2024/01/21 10:55:44;;;;;;;2.08;1.45;;;;;;;6.17;26.73;93823.03;4838711;29;20046;-79
2024/01/21 10:58:10;;;;;;;2.63;1.60;;;;;;;5.88;26.69;93817.69;4839170;29;20090;-78
2024/01/21 11:00:39;;;;;;;2.65;1.35;;;;;;;5.77;27.91;93819.22;4838576;29;20033;-79
2024/01/21 11:03:31;;;;;;;2.35;1.20;;;;;;;5.39;27.73;93815.19;4830520;29;20096;-82
2024/01/21 11:06:03;;;;;;;1.77;1.20;;;;;;;5.26;27.26;93822.38;4830335;29;20524;-78
2024/01/21 11:08:29;;;;;;;;;;;;;;;4.84;28.60;93814.50;4833837;29;20121;-78
2024/01/21 11:11:06;;;;;;;1.90;1.30;;;;;;;4.82;29.15;93814.72;4838115;29;19983;-78
2024/01/21 11:13:38;;;;;;;2.47;1.40;;;;;;;5.03;28.79;93807.50;4836289;29;20447;-81
2024/01/21 11:16:06;;;;;;;;;;;;;;;5.19;28.03;93812.84;4823682;29;20743;-79
2024/01/21 11:18:31;;;;;;;1.85;1.13;;;;;;;5.17;28.65;93808.91;4836654;29;20377;-79
2024/01/21 11:21:01;;;;;;;2.58;1.60;;;;;;;5.10;28.96;93806.38;4836887;29;20042;-79
2024/01/21 11:23:29;;;;;;;2.38;1.42;;;;;;;5.03;29.02;93802.31;4819105;29;20049;-79
2024/01/21 11:25:55;;;;;;;2.03;1.40;;;;;;;4.83;30.51;93798.13;4836359;29;20034;-79
2024/01/21 11:28:28;;;;;;;2.53;1.40;;;;;;;4.68;28.37;93795.13;4836518;29;20780;-80
2024/01/21 11:31:02;;;;;;;2.03;1.27;;;;;;;4.35;27.51;93785.91;4839537;29;20077;-79
2024/01/21 11:33:29;;;;;;;2.20;1.25;;;;;;;4.21;28.87;93785.28;4822679;29;20444;-79